Time;durP1;ratioP1;P1;durP2;ratioP2;P2;SDS_P1;SDS_P2;PMS_P1;PMS_P2;Temp;Humidity;BMP_temperature;BMP_pressure;BME280_temperature;BME280_humidity;BME280_pressure;Samples;Min_cycle;Max_cycle;Signal;HPM_P1;HPM_P2
2022/08/25 00:02:05;;;;;;;;;1.80;1.80;29.20;99.90;;;;;;5021934;28;8903;-69
2022/08/25 00:04:40;;;;;;;;;2.00;2.00;29.20;99.90;;;;;;5012243;28;8861;-68
2022/08/25 00:07:11;;;;;;;;;1.40;1.00;29.30;99.90;;;;;;5014136;28;8852;-67
2022/08/25 00:09:47;;;;;;;;;3.00;1.80;29.50;99.90;;;;;;5035112;28;8983;-66
2022/08/25 00:12:18;;;;;;;;;3.20;1.60;29.50;99.90;;;;;;5028462;28;8828;-66
2022/08/25 00:14:50;;;;;;;;;1.20;1.20;29.50;99.90;;;;;;5030835;28;8844;-66
2022/08/25 00:17:23;;;;;;;;;2.00;2.00;29.50;99.90;;;;;;5028991;28;8858;-63
2022/08/25 00:19:56;;;;;;;;;1.20;1.20;29.40;99.90;;;;;;5012507;28;8860;-64
2022/08/25 00:22:30;;;;;;;;;2.00;2.00;29.30;99.90;;;;;;5006904;28;8869;-63
2022/08/25 00:25:08;;;;;;;;;1.00;1.00;29.30;99.90;;;;;;5024373;28;8878;-64
2022/08/25 00:27:40;;;;;;;;;2.00;2.00;29.30;99.90;;;;;;5027350;28;8866;-64
2022/08/25 00:30:13;;;;;;;;;2.00;2.00;29.20;99.90;;;;;;5030833;28;8856;-66
2022/08/25 00:32:45;;;;;;;;;1.60;1.60;29.20;99.90;;;;;;5026891;28;8875;-65
2022/08/25 00:35:26;;;;;;;;;1.40;1.40;29.20;99.90;;;;;;5026665;28;9590;-67
2022/08/25 00:37:58;;;;;;;;;2.00;2.00;29.10;99.90;;;;;;5020636;28;9603;-65
2022/08/25 00:40:30;;;;;;;;;1.00;1.00;29.10;99.90;;;;;;5030942;28;8835;-65
2022/08/25 00:43:05;;;;;;;;;2.00;2.00;29.10;99.90;;;;;;5025145;28;9662;-66
2022/08/25 00:45:36;;;;;;;;;2.80;2.00;29.10;99.90;;;;;;5028254;28;8865;-64
2022/08/25 00:48:08;;;;;;;;;1.80;1.80;29.00;99.90;;;;;;5008566;28;8842;-63
2022/08/25 00:50:42;;;;;;;;;2.60;2.60;29.00;99.90;;;;;;5012852;28;8946;-62
2022/08/25 00:53:12;;;;;;;;;2.00;2.00;29.00;99.90;;;;;;5025418;28;9817;-64
2022/08/25 00:55:42;;;;;;;;;1.80;1.80;28.90;99.90;;;;;;5029358;28;8832;-63
2022/08/25 00:58:19;;;;;;;;;2.00;2.00;28.90;99.90;;;;;;5015561;28;9540;-63
2022/08/25 01:00:54;;;;;;;;;2.00;2.00;28.90;99.90;;;;;;5022048;28;8829;-66
2022/08/25 01:03:28;;;;;;;;;2.40;2.40;28.80;99.90;;;;;;5036086;28;8864;-65
2022/08/25 01:06:06;;;;;;;;;2.20;2.20;28.80;99.90;;;;;;5018014;28;8860;-66
2022/08/25 01:08:38;;;;;;;;;2.00;2.00;28.80;99.90;;;;;;5010301;28;8848;-65
2022/08/25 01:11:11;;;;;;;;;3.00;3.00;28.70;99.90;;;;;;5028000;28;8841;-64
2022/08/25 01:13:54;;;;;;;;;2.60;2.60;28.70;99.90;;;;;;5013362;28;8892;-64
2022/08/25 01:16:26;;;;;;;;;2.40;2.40;28.60;99.90;;;;;;5019861;28;8852;-66
2022/08/25 01:18:59;;;;;;;;;2.20;2.20;28.60;99.90;;;;;;5025702;28;8835;-65
2022/08/25 01:21:33;;;;;;;;;3.80;3.80;28.60;99.90;;;;;;5036555;28;8845;-66
2022/08/25 01:24:07;;;;;;;;;2.00;2.00;28.50;99.90;;;;;;5027992;28;8861;-66
2022/08/25 01:26:38;;;;;;;;;2.00;2.00;28.40;99.90;;;;;;5036411;28;9353;-64
2022/08/25 01:29:19;;;;;;;;;2.40;2.40;28.40;99.90;;;;;;5030182;28;9021;-64
2022/08/25 01:31:56;;;;;;;;;3.00;3.00;28.40;99.90;;;;;;5018895;28;8832;-65
2022/08/25 01:34:31;;;;;;;;;2.80;2.80;28.40;99.90;;;;;;5016075;28;8903;-65
2022/08/25 01:37:03;;;;;;;;;3.00;3.00;28.40;99.90;;;;;;5018593;28;9014;-64
2022/08/25 01:39:38;;;;;;;;;2.00;2.00;28.40;99.90;;;;;;4993505;28;8860;-65
2022/08/25 01:42:18;;;;;;;;;3.00;3.00;28.30;99.90;;;;;;5031302;28;8836;-65
2022/08/25 01:44:48;;;;;;;;;2.60;2.60;28.30;99.90;;;;;;5027476;28;8839;-66
2022/08/25 01:47:18;;;;;;;;;4.00;4.00;28.20;99.90;;;;;;5033440;28;8852;-65
2022/08/25 01:49:56;;;;;;;;;3.00;3.00;28.20;99.90;;;;;;5043077;28;8889;-66
2022/08/25 01:52:46;;;;;;;;;4.00;4.00;28.20;99.90;;;;;;5032377;28;8828;-64
2022/08/25 01:55:20;;;;;;;;;3.00;3.00;28.20;99.90;;;;;;5029688;28;8867;-67
2022/08/25 01:57:53;;;;;;;;;3.80;3.80;28.10;99.90;;;;;;5033561;28;9530;-68
2022/08/25 02:00:24;;;;;;;;;3.00;3.00;28.00;99.90;;;;;;5036187;28;8833;-64
2022/08/25 02:02:54;;;;;;;;;2.00;2.00;27.90;99.90;;;;;;5028641;28;8871;-64
2022/08/25 02:05:32;;;;;;;;;3.20;3.20;27.80;99.90;;;;;;5014715;28;8878;-65
2022/08/25 02:08:07;;;;;;;;;4.00;4.00;27.80;99.90;;;;;;5009079;28;8945;-66
2022/08/25 02:10:38;;;;;;;;;3.00;3.00;27.70;99.90;;;;;;5044365;28;8877;-64
2022/08/25 02:13:09;;;;;;;;;3.20;3.20;27.60;99.90;;;;;;5011485;28;9002;-64
2022/08/25 02:15:45;;;;;;;;;2.40;2.40;27.70;99.90;;;;;;5030301;28;9501;-63
2022/08/25 02:18:18;;;;;;;;;3.00;3.00;27.70;99.90;;;;;;5034273;28;8839;-64
2022/08/25 02:20:49;;;;;;;;;3.00;3.00;27.70;99.90;;;;;;5027739;28;8830;-63
2022/08/25 02:23:20;;;;;;;;;2.20;2.20;27.70;99.90;;;;;;5014103;28;8828;-64
2022/08/25 02:25:51;;;;;;;;;2.80;2.80;27.60;99.90;;;;;;5033106;28;8844;-64
2022/08/25 02:28:23;;;;;;;;;2.80;2.80;27.60;99.90;;;;;;5017561;28;9572;-66
2022/08/25 02:30:53;;;;;;;;;3.00;3.00;27.50;99.90;;;;;;5028405;28;8855;-65
2022/08/25 02:33:31;;;;;;;;;2.40;2.40;27.50;99.90;;;;;;5031855;28;8973;-67
2022/08/25 02:36:04;;;;;;;;;3.00;3.00;27.50;99.90;;;;;;5044754;28;8831;-64
2022/08/25 02:38:36;;;;;;;;;4.00;4.00;27.50;99.90;;;;;;5036103;28;8824;-64
2022/08/25 02:41:34;;;;;;;;;3.00;3.00;27.50;99.90;;;;;;5027312;28;8870;-65
2022/08/25 02:44:05;;;;;;;;;2.60;2.60;27.50;99.90;;;;;;5043293;28;9008;-66
2022/08/25 02:46:37;;;;;;;;;3.20;3.20;27.50;99.90;;;;;;5036259;28;8886;-67
2022/08/25 02:49:11;;;;;;;;;2.40;2.40;27.50;99.90;;;;;;5036030;28;8852;-66
2022/08/25 02:51:42;;;;;;;;;2.40;2.40;27.40;99.90;;;;;;5002089;28;8878;-67
2022/08/25 02:54:14;;;;;;;;;3.40;3.40;27.40;99.90;;;;;;5006634;28;8847;-69
2022/08/25 02:56:49;;;;;;;;;2.40;2.40;27.40;99.90;;;;;;5032332;28;8854;-65
2022/08/25 02:59:19;;;;;;;;;3.40;3.40;27.40;99.90;;;;;;5036794;28;8844;-65
2022/08/25 03:01:50;;;;;;;;;3.20;3.20;27.30;99.90;;;;;;5031553;28;8851;-65
2022/08/25 03:04:20;;;;;;;;;4.20;4.20;27.30;99.90;;;;;;5020363;28;8834;-64
2022/08/25 03:06:54;;;;;;;;;3.80;3.80;27.30;99.90;;;;;;5019570;28;8878;-65
2022/08/25 03:09:24;;;;;;;;;4.00;4.00;27.30;99.90;;;;;;5020074;28;8856;-66
2022/08/25 03:11:56;;;;;;;;;4.60;4.60;27.30;99.90;;;;;;5015558;28;8978;-65
2022/08/25 03:14:30;;;;;;;;;5.00;5.00;27.30;99.90;;;;;;5016819;28;8846;-64
2022/08/25 03:17:03;;;;;;;;;5.40;5.40;27.30;99.90;;;;;;5032026;28;8824;-65
2022/08/25 03:19:37;;;;;;;;;6.60;6.60;27.20;99.90;;;;;;5032320;28;8832;-64
2022/08/25 03:22:10;;;;;;;;;5.00;5.00;27.20;99.90;;;;;;5034292;28;8839;-66
2022/08/25 03:24:41;;;;;;;;;6.00;6.00;27.20;99.90;;;;;;5029296;28;8841;-63
2022/08/25 03:27:14;;;;;;;;;6.00;6.00;27.20;99.90;;;;;;5028816;28;8894;-68
2022/08/25 03:29:45;;;;;;;;;4.80;4.80;27.20;99.90;;;;;;5049386;28;9580;-67
2022/08/25 03:32:17;;;;;;;;;6.00;6.00;27.10;99.90;;;;;;5021193;28;8850;-65
2022/08/25 03:34:51;;;;;;;;;4.00;4.00;27.10;99.90;;;;;;5015533;28;8844;-68
2022/08/25 03:37:22;;;;;;;;;6.80;6.80;27.10;99.90;;;;;;5011263;28;8858;-68
2022/08/25 03:39:54;;;;;;;;;6.80;6.80;27.00;99.90;;;;;;5022258;28;8854;-66
2022/08/25 03:42:25;;;;;;;;;7.20;7.20;27.10;99.90;;;;;;5024679;28;8879;-67
2022/08/25 03:44:58;;;;;;;;;9.00;9.00;27.00;99.90;;;;;;5030126;28;8874;-68
2022/08/25 03:47:30;;;;;;;;;7.80;7.80;27.00;99.90;;;;;;5032854;28;8859;-69
2022/08/25 03:50:03;;;;;;;;;8.40;8.40;27.00;99.90;;;;;;5018891;28;8883;-65
2022/08/25 03:52:36;;;;;;;;;7.20;7.20;27.00;99.90;;;;;;5026959;28;8858;-66
2022/08/25 03:55:13;;;;;;;;;8.40;8.40;27.00;99.90;;;;;;5011646;28;8869;-63
2022/08/25 03:57:45;;;;;;;;;6.00;6.00;26.90;99.90;;;;;;5031132;28;8860;-62
2022/08/25 04:00:20;;;;;;;;;5.00;5.00;27.00;99.90;;;;;;4999663;28;8826;-62
2022/08/25 04:02:54;;;;;;;;;6.80;6.80;26.90;99.90;;;;;;5022803;28;8833;-67
2022/08/25 04:05:24;;;;;;;;;7.20;7.20;26.90;99.90;;;;;;5008541;28;8848;-64
2022/08/25 04:07:56;;;;;;;;;6.00;6.00;26.90;99.90;;;;;;5034605;28;8978;-65
2022/08/25 04:10:32;;;;;;;;;6.60;6.60;26.90;99.90;;;;;;5020826;28;8838;-64
2022/08/25 04:13:03;;;;;;;;;7.80;7.80;26.90;99.90;;;;;;4998906;28;8868;-64
2022/08/25 04:15:36;;;;;;;;;7.00;7.00;26.90;99.90;;;;;;5026575;28;8823;-63
2022/08/25 04:18:10;;;;;;;;;5.00;5.00;26.80;99.90;;;;;;5011441;28;8866;-63
2022/08/25 04:20:46;;;;;;;;;6.80;6.80;26.80;99.90;;;;;;5013006;28;8855;-65
2022/08/25 04:23:16;;;;;;;;;5.00;5.00;26.80;99.90;;;;;;5045984;28;9588;-64
2022/08/25 04:25:50;;;;;;;;;7.00;7.00;26.80;99.90;;;;;;5025845;28;8903;-65
2022/08/25 04:28:32;;;;;;;;;6.80;6.80;26.80;99.90;;;;;;5032677;28;8862;-65
2022/08/25 04:31:06;;;;;;;;;7.00;7.00;26.80;99.90;;;;;;5011423;28;8884;-65
2022/08/25 04:33:40;;;;;;;;;7.00;7.00;26.70;99.90;;;;;;5029548;28;8867;-66
2022/08/25 04:36:12;;;;;;;;;5.40;5.40;26.70;99.90;;;;;;5027838;28;8820;-67
2022/08/25 04:38:44;;;;;;;;;6.00;6.00;26.70;99.90;;;;;;5006539;28;8841;-65
2022/08/25 04:41:19;;;;;;;;;6.80;6.80;26.70;99.90;;;;;;5020566;28;9684;-65
2022/08/25 04:43:53;;;;;;;;;7.00;7.00;26.60;99.90;;;;;;5030659;28;8875;-64
2022/08/25 04:46:30;;;;;;;;;7.00;7.00;26.50;99.90;;;;;;5021861;28;8906;-67
2022/08/25 04:49:03;;;;;;;;;6.80;6.80;26.60;99.90;;;;;;5029358;28;8824;-67
2022/08/25 04:51:39;;;;;;;;;7.20;7.20;26.50;99.90;;;;;;5029582;28;8836;-68
2022/08/25 04:54:20;;;;;;;;;6.20;6.20;26.60;99.90;;;;;;5029948;28;9964;-67
2022/08/25 04:56:54;;;;;;;;;5.60;5.60;26.50;99.90;;;;;;5028409;28;8852;-69
2022/08/25 04:59:28;;;;;;;;;8.60;8.60;26.60;99.90;;;;;;5002632;28;8836;-68
2022/08/25 05:02:04;;;;;;;;;6.60;6.60;26.50;99.90;;;;;;5025160;28;8828;-69
2022/08/25 05:04:36;;;;;;;;;7.00;7.00;26.60;99.90;;;;;;5030901;28;8836;-69
2022/08/25 05:07:08;;;;;;;;;6.00;6.00;26.50;99.90;;;;;;5013933;28;8899;-68
2022/08/25 05:09:39;;;;;;;;;5.00;5.00;26.50;99.90;;;;;;5028783;28;8836;-69
2022/08/25 05:12:10;;;;;;;;;5.80;5.80;26.50;99.90;;;;;;5031468;28;8836;-67
2022/08/25 05:14:44;;;;;;;;;8.00;8.00;26.50;99.90;;;;;;5018546;28;8844;-68
2022/08/25 05:17:14;;;;;;;;;5.00;5.00;26.50;99.90;;;;;;5030691;28;8834;-68
2022/08/25 05:19:48;;;;;;;;;5.00;5.00;26.40;99.90;;;;;;5014649;28;8841;-67
2022/08/25 05:22:18;;;;;;;;;5.60;5.60;26.40;99.90;;;;;;5019354;28;8862;-69
2022/08/25 05:24:50;;;;;;;;;5.00;5.00;26.40;99.90;;;;;;5021205;28;8840;-68
2022/08/25 05:27:21;;;;;;;;;5.40;5.40;26.40;99.90;;;;;;5020232;28;8843;-68
2022/08/25 05:29:52;;;;;;;;;6.60;6.60;26.40;99.90;;;;;;5032365;28;8913;-68
2022/08/25 05:32:23;;;;;;;;;8.80;8.80;26.40;99.90;;;;;;5001369;28;9601;-69
2022/08/25 05:34:55;;;;;;;;;7.00;7.00;26.40;99.90;;;;;;5039855;28;8963;-67
2022/08/25 05:37:32;;;;;;;;;7.80;7.80;26.40;99.90;;;;;;5028551;28;8835;-67
2022/08/25 05:40:03;;;;;;;;;7.60;7.60;26.40;99.90;;;;;;5029430;28;9582;-68
2022/08/25 05:42:36;;;;;;;;;6.00;6.00;26.40;99.90;;;;;;5032583;28;8836;-67
2022/08/25 05:45:12;;;;;;;;;5.40;5.40;26.30;99.90;;;;;;5022112;28;8870;-68
2022/08/25 05:47:50;;;;;;;;;7.00;7.00;26.30;99.90;;;;;;5013331;28;8907;-67
2022/08/25 05:50:20;;;;;;;;;5.40;5.40;26.30;99.90;;;;;;5009901;28;8829;-67
2022/08/25 05:52:52;;;;;;;;;6.40;6.40;26.30;99.90;;;;;;4994857;28;9598;-68
2022/08/25 05:55:25;;;;;;;;;8.20;8.20;26.30;99.90;;;;;;5011221;28;9606;-68
2022/08/25 05:57:55;;;;;;;;;7.00;7.00;26.20;99.90;;;;;;5007723;28;8943;-66
2022/08/25 06:00:28;;;;;;;;;7.60;7.60;26.20;99.90;;;;;;5010750;28;8879;-67
2022/08/25 06:02:57;;;;;;;;;6.40;6.40;26.20;99.90;;;;;;5015100;28;8875;-67
2022/08/25 06:05:28;;;;;;;;;5.20;5.20;26.20;99.90;;;;;;5006051;28;8864;-67
2022/08/25 06:08:02;;;;;;;;;6.00;6.00;26.20;99.90;;;;;;5010559;28;8896;-67
2022/08/25 06:10:34;;;;;;;;;6.00;6.00;26.10;99.90;;;;;;5008616;28;9567;-69
2022/08/25 06:13:06;;;;;;;;;7.00;7.00;26.10;99.90;;;;;;5015652;28;8861;-67
2022/08/25 06:15:39;;;;;;;;;5.75;5.75;26.10;99.90;;;;;;5012768;28;8853;-68
2022/08/25 06:18:10;;;;;;;;;3.00;3.00;26.00;99.90;;;;;;5010592;28;8867;-68
2022/08/25 06:20:40;;;;;;;;;7.00;7.00;26.00;99.90;;;;;;5015242;28;8856;-69
2022/08/25 06:23:14;;;;;;;;;9.00;9.00;26.10;99.90;;;;;;5015775;28;8853;-68
2022/08/25 06:25:55;;;;;;;;;6.20;6.20;26.10;99.90;;;;;;5011786;28;9995;-68
2022/08/25 06:28:27;;;;;;;;;3.40;3.40;25.90;99.90;;;;;;5012933;28;8842;-68
2022/08/25 06:31:02;;;;;;;;;6.20;6.20;25.80;99.90;;;;;;5012709;28;10045;-66
2022/08/25 06:33:33;;;;;;;;;6.75;6.75;25.80;99.90;;;;;;5015133;28;8861;-66
2022/08/25 06:36:06;;;;;;;;;6.75;6.75;25.80;99.90;;;;;;5012908;28;8871;-67
2022/08/25 06:38:37;;;;;;;;;6.75;6.75;25.90;99.90;;;;;;5012570;28;8857;-67
2022/08/25 06:41:11;;;;;;;;;5.20;5.20;25.80;99.90;;;;;;5017348;28;8837;-68
2022/08/25 06:43:44;;;;;;;;;7.00;7.00;25.70;99.90;;;;;;5015792;28;8863;-67
2022/08/25 06:46:28;;;;;;;;;6.20;6.20;25.80;99.90;;;;;;5029212;28;8883;-67
2022/08/25 06:49:06;;;;;;;;;6.75;6.75;25.80;99.90;;;;;;5045449;28;8854;-67
2022/08/25 06:51:40;;;;;;;;;8.00;8.00;25.70;99.90;;;;;;5033049;28;8882;-69
2022/08/25 06:54:12;;;;;;;;;7.50;7.50;25.60;99.90;;;;;;5051283;28;8860;-69
2022/08/25 06:56:43;;;;;;;;;7.75;7.75;25.60;99.90;;;;;;5033805;28;8840;-68
2022/08/25 06:59:18;;;;;;;;;7.00;7.00;25.60;99.90;;;;;;5019821;28;8851;-69
2022/08/25 07:01:49;;;;;;;;;9.00;9.00;25.60;99.90;;;;;;5035739;28;8867;-67
2022/08/25 07:04:22;;;;;;;;;5.00;5.00;25.60;99.90;;;;;;5044484;28;8839;-67
2022/08/25 07:06:53;;;;;;;;;6.25;6.25;25.60;99.90;;;;;;5027377;28;9012;-68
2022/08/25 07:09:28;;;;;;;;;7.00;7.00;25.60;99.90;;;;;;5019964;28;8894;-68
2022/08/25 07:11:58;;;;;;;;;7.25;7.25;25.60;99.90;;;;;;5025887;28;8868;-68
2022/08/25 07:14:31;;;;;;;;;8.00;8.00;25.50;99.90;;;;;;5046403;28;8924;-68
2022/08/25 07:17:03;;;;;;;;;7.25;7.25;25.50;99.90;;;;;;5030396;28;8850;-67
2022/08/25 07:19:40;;;;;;;;;7.00;7.00;25.50;99.90;;;;;;5034169;28;9587;-66
2022/08/25 07:22:13;;;;;;;;;6.75;6.75;25.40;99.90;;;;;;5010799;28;8894;-69
2022/08/25 07:24:45;;;;;;;;;8.00;8.00;25.30;99.90;;;;;;5056043;28;8832;-69
2022/08/25 07:27:15;;;;;;;;;7.75;7.75;25.30;99.90;;;;;;5021183;28;9635;-67
2022/08/25 07:29:48;;;;;;;;;6.00;6.00;25.30;99.90;;;;;;5041831;28;8874;-68
2022/08/25 07:32:18;;;;;;;;;8.00;8.00;25.30;99.90;;;;;;5024140;28;8847;-68
2022/08/25 07:37:45;;;;;;;;;7.00;7.00;25.20;99.90;;;;;;5047158;28;8987;-67
2022/08/25 07:40:24;;;;;;;;;9.75;8.25;25.20;99.90;;;;;;5046062;28;8837;-70
2022/08/25 07:42:57;;;;;;;;;9.75;9.75;25.10;99.90;;;;;;5044614;28;8891;-70
2022/08/25 07:45:31;;;;;;;;;6.50;6.50;25.10;99.90;;;;;;5026157;28;9133;-70
2022/08/25 07:48:09;;;;;;;;;7.25;7.25;25.10;99.90;;;;;;5024603;28;8911;-68
2022/08/25 07:50:44;;;;;;;;;8.00;8.00;25.00;99.90;;;;;;5027338;28;8866;-67
2022/08/25 07:53:18;;;;;;;;;5.25;5.25;25.00;99.90;;;;;;5027812;28;8969;-67
2022/08/25 07:55:50;;;;;;;;;7.00;7.00;25.10;99.90;;;;;;5025295;28;8869;-69
2022/08/25 07:58:24;;;;;;;;;6.25;6.25;25.10;99.90;;;;;;5044321;28;8867;-69
2022/08/25 08:00:55;;;;;;;;;7.25;7.25;25.00;99.90;;;;;;5022771;28;8814;-69
2022/08/25 08:03:26;;;;;;;;;6.00;6.00;24.90;99.90;;;;;;5038659;28;8827;-69
2022/08/25 08:06:22;;;;;;;;;7.00;7.00;24.80;99.90;;;;;;5023748;28;8866;-69
2022/08/25 08:08:53;;;;;;;;;7.00;7.00;24.80;99.90;;;;;;5048926;28;9589;-68
2022/08/25 08:11:33;;;;;;;;;8.25;8.25;24.80;99.90;;;;;;5025545;28;8835;-67
2022/08/25 08:14:04;;;;;;;;;7.75;7.75;24.80;99.90;;;;;;5020176;28;8861;-67
2022/08/25 08:16:36;;;;;;;;;9.00;9.00;24.80;99.90;;;;;;5018714;28;8853;-69
2022/08/25 08:19:09;;;;;;;;;6.75;6.75;24.70;99.90;;;;;;5004103;28;9718;-69
2022/08/25 08:21:39;;;;;;;;;7.00;7.00;24.80;99.90;;;;;;5020220;28;8946;-69
2022/08/25 08:24:09;;;;;;;;;8.00;8.00;24.80;99.90;;;;;;5021516;28;8826;-69
2022/08/25 08:27:02;;;;;;;;;6.75;6.75;24.70;99.90;;;;;;5015279;28;8948;-66
2022/08/25 08:29:35;;;;;;;;;9.25;9.25;24.70;99.90;;;;;;5030714;28;8885;-66
2022/08/25 08:32:07;;;;;;;;;8.75;8.75;24.80;99.90;;;;;;5020798;28;9583;-67
2022/08/25 08:34:39;;;;;;;;;9.25;9.25;24.70;99.90;;;;;;5047936;28;9632;-67
2022/08/25 08:37:16;;;;;;;;;8.00;8.00;24.60;99.90;;;;;;5016179;28;8863;-66
2022/08/25 08:39:54;;;;;;;;;7.50;7.50;24.70;99.90;;;;;;5003910;28;8851;-66
2022/08/25 08:42:52;;;;;;;;;8.75;8.75;24.50;99.90;;;;;;5027483;28;8843;-66
2022/08/25 08:46:01;;;;;;;;;8.50;8.25;24.50;99.90;;;;;;5015224;28;8915;-66
2022/08/25 08:49:01;;;;;;;;;7.75;7.75;24.50;99.90;;;;;;5023567;28;9654;-66
2022/08/25 08:51:37;;;;;;;;;9.25;8.00;24.50;99.90;;;;;;5018966;28;8865;-67
2022/08/25 08:54:23;;;;;;;;;5.75;5.75;24.50;99.90;;;;;;5045522;28;8854;-66
2022/08/25 08:57:24;;;;;;;;;8.00;8.00;24.50;99.90;;;;;;5017974;28;8865;-66
2022/08/25 09:00:00;;;;;;;;;8.25;8.25;24.50;99.90;;;;;;5038468;28;9400;-69
2022/08/25 09:02:42;;;;;;;;;7.50;7.50;24.50;99.90;;;;;;5016162;28;8873;-69
2022/08/25 09:05:25;;;;;;;;;7.75;7.75;24.50;99.90;;;;;;5022357;28;8952;-69
2022/08/25 09:08:00;;;;;;;;;8.00;8.00;24.50;99.90;;;;;;5023787;28;9562;-68
2022/08/25 09:10:59;;;;;;;;;9.00;9.00;24.50;99.90;;;;;;5019878;28;8881;-70
2022/08/25 09:13:47;;;;;;;;;6.50;6.50;24.40;99.90;;;;;;5025793;28;8810;-68
2022/08/25 09:19:33;;;;;;;;;8.00;8.00;24.40;99.90;;;;;;5016892;28;8847;-66
2022/08/25 09:22:35;;;;;;;;;8.00;8.00;24.40;99.90;;;;;;5022185;28;8818;-69
2022/08/25 09:25:09;;;;;;;;;9.25;9.25;24.40;99.90;;;;;;5017923;28;8854;-65
2022/08/25 09:27:52;;;;;;;;;8.25;8.25;24.10;99.90;;;;;;5047597;28;8852;-66
2022/08/25 09:30:26;;;;;;;;;7.00;7.00;24.10;99.90;;;;;;5026503;28;8842;-67
2022/08/25 09:33:03;;;;;;;;;9.25;9.25;24.10;99.90;;;;;;5023739;28;8855;-67
2022/08/25 09:35:40;;;;;;;;;9.75;9.75;24.10;99.90;;;;;;5020423;28;8854;-66
2022/08/25 09:38:13;;;;;;;;;7.00;7.00;24.10;99.90;;;;;;5021706;28;9455;-68
2022/08/25 09:40:47;;;;;;;;;9.75;8.00;24.10;99.90;;;;;;5019608;28;8857;-70
2022/08/25 09:43:39;;;;;;;;;9.00;9.00;24.10;99.90;;;;;;5025479;28;8826;-70
2022/08/25 09:46:11;;;;;;;;;8.00;8.00;24.10;99.90;;;;;;5034460;28;8904;-69
2022/08/25 09:48:54;;;;;;;;;7.75;7.75;24.10;99.90;;;;;;5017980;28;8844;-69
2022/08/25 09:51:31;;;;;;;;;9.25;9.25;24.00;99.90;;;;;;5042675;28;8883;-68
2022/08/25 09:54:14;;;;;;;;;8.25;8.25;24.10;99.90;;;;;;5040137;28;8943;-68
2022/08/25 09:56:58;;;;;;;;;8.00;8.00;24.00;99.90;;;;;;5044954;28;8850;-69
2022/08/25 09:59:35;;;;;;;;;4.00;4.00;24.00;99.90;;;;;;5037684;28;8842;-69
2022/08/25 10:02:28;;;;;;;;;7.50;7.50;24.00;99.90;;;;;;5021238;28;8838;-70
2022/08/25 10:05:26;;;;;;;;;7.50;7.50;24.00;99.90;;;;;;5059417;28;8852;-69
2022/08/25 10:08:03;;;;;;;;;7.75;7.75;24.00;99.90;;;;;;5039010;28;8848;-69
2022/08/25 10:10:56;;;;;;;;;8.25;7.50;23.90;99.90;;;;;;5026498;28;8867;-66
2022/08/25 10:13:45;;;;;;;;;8.33;8.33;23.90;99.90;;;;;;5038360;28;8844;-66
2022/08/25 10:16:27;;;;;;;;;9.50;9.50;23.90;99.90;;;;;;5026889;28;9434;-68
2022/08/25 10:19:32;;;;;;;;;6.25;6.25;23.80;99.90;;;;;;5038954;28;8828;-69
2022/08/25 10:22:07;;;;;;;;;9.75;9.75;23.80;99.90;;;;;;5040096;28;8864;-69
2022/08/25 10:24:40;;;;;;;;;9.00;9.00;23.70;99.90;;;;;;5027420;28;8840;-69
2022/08/25 10:27:20;;;;;;;;;5.25;5.25;23.90;99.90;;;;;;5030679;28;9309;-68
2022/08/25 10:30:14;;;;;;;;;9.25;9.25;23.90;99.90;;;;;;5039033;28;9595;-68
2022/08/25 10:33:01;;;;;;;;;8.75;8.75;23.90;99.90;;;;;;5058812;28;8842;-70
2022/08/25 10:35:49;;;;;;;;;4.75;4.75;23.80;99.90;;;;;;5027460;28;8829;-68
2022/08/25 10:38:48;;;;;;;;;10.50;10.50;23.70;99.90;;;;;;5026698;28;8850;-69
2022/08/25 10:41:30;;;;;;;;;7.75;7.75;23.70;99.90;;;;;;5023277;28;9567;-69
2022/08/25 10:47:56;;;;;;;;;9.50;9.50;23.70;99.90;;;;;;5042797;28;8854;-67
2022/08/25 10:50:40;;;;;;;;;6.75;6.75;23.70;99.90;;;;;;5045529;28;8874;-68
2022/08/25 10:53:35;;;;;;;;;7.50;7.50;23.60;99.90;;;;;;5027117;28;8880;-68
2022/08/25 10:56:32;;;;;;;;;8.50;7.00;23.60;99.90;;;;;;5045634;28;8845;-69
2022/08/25 10:59:37;;;;;;;;;9.00;7.75;23.60;99.90;;;;;;5048071;28;8818;-69
2022/08/25 11:02:53;;;;;;;;;6.50;6.50;23.70;99.90;;;;;;5041403;28;8854;-66
2022/08/25 11:05:38;;;;;;;;;9.00;9.00;23.70;99.90;;;;;;5039427;28;8865;-67
2022/08/25 11:08:27;;;;;;;;;9.00;9.00;23.70;99.90;;;;;;5026070;28;8876;-66
2022/08/25 11:11:26;;;;;;;;;11.25;9.75;23.50;99.90;;;;;;5047476;28;8898;-68
2022/08/25 11:14:04;;;;;;;;;11.25;11.25;23.50;99.90;;;;;;5045850;28;8822;-67
2022/08/25 11:16:43;;;;;;;;;7.25;7.25;23.50;99.90;;;;;;5046750;28;8863;-66
2022/08/25 11:19:41;;;;;;;;;9.75;9.75;23.50;99.90;;;;;;5023856;28;8838;-65
2022/08/25 11:22:30;;;;;;;;;9.75;9.75;23.60;99.90;;;;;;5042321;28;8840;-65
2022/08/25 11:25:15;;;;;;;;;9.75;9.75;23.50;99.90;;;;;;5046997;28;8830;-66
2022/08/25 11:28:12;;;;;;;;;9.50;9.50;23.50;99.90;;;;;;5043322;28;8848;-66
2022/08/25 11:30:44;;;;;;;;;11.75;10.00;23.70;99.90;;;;;;5044154;28;8900;-64
2022/08/25 11:33:19;;;;;;;;;9.25;9.25;23.70;99.90;;;;;;5044554;28;8850;-66
2022/08/25 11:35:59;;;;;;;;;10.00;10.00;23.70;99.90;;;;;;5045686;28;8850;-68
2022/08/25 11:39:05;;;;;;;;;9.50;9.50;23.70;99.90;;;;;;5040896;28;8868;-68
2022/08/25 11:42:14;;;;;;;;;11.00;11.00;23.60;99.90;;;;;;5012279;28;8868;-65
2022/08/25 11:45:20;;;;;;;;;8.00;8.00;23.80;99.90;;;;;;5046351;28;8872;-66
2022/08/25 11:48:20;;;;;;;;;9.25;9.25;23.80;99.90;;;;;;5047576;28;8833;-65
2022/08/25 11:51:07;;;;;;;;;10.75;10.75;23.70;99.90;;;;;;5032307;28;9668;-63
2022/08/25 11:53:41;;;;;;;;;10.00;10.00;23.50;99.90;;;;;;5026425;28;8973;-66
2022/08/25 11:56:34;;;;;;;;;8.50;8.50;23.50;99.90;;;;;;5010941;28;8870;-67
2022/08/25 11:59:08;;;;;;;;;10.25;10.25;23.50;99.90;;;;;;5044572;28;8820;-67
2022/08/25 12:01:42;;;;;;;;;9.00;9.00;23.50;99.90;;;;;;5029504;28;8881;-65
2022/08/25 12:04:32;;;;;;;;;11.25;11.25;23.60;99.90;;;;;;5026605;28;9732;-64
2022/08/25 12:07:21;;;;;;;;;10.25;10.25;23.70;99.90;;;;;;5034981;28;8846;-67
2022/08/25 12:10:05;;;;;;;;;9.50;9.50;23.70;99.90;;;;;;5031496;28;8890;-67
2022/08/25 12:12:43;;;;;;;;;10.50;10.50;23.60;99.90;;;;;;5040239;28;8842;-66
2022/08/25 12:15:32;;;;;;;;;9.75;9.75;23.50;99.90;;;;;;5024789;28;8871;-66
2022/08/25 12:18:21;;;;;;;;;11.75;11.75;23.40;99.90;;;;;;5031923;28;8858;-67
2022/08/25 12:20:56;;;;;;;;;9.50;9.50;23.40;99.90;;;;;;5053284;28;8849;-66
2022/08/25 12:23:33;;;;;;;;;9.00;9.00;23.40;99.90;;;;;;5049616;28;9545;-63
2022/08/25 12:26:35;;;;;;;;;12.00;11.00;23.40;99.90;;;;;;5049055;28;8987;-65
2022/08/25 12:29:12;;;;;;;;;7.00;7.00;23.50;99.90;;;;;;5030548;28;8860;-66
2022/08/25 12:31:43;;;;;;;;;10.50;10.50;23.70;99.90;;;;;;5029257;28;8852;-65
2022/08/25 12:35:00;;;;;;;;;10.50;10.50;23.60;99.90;;;;;;5050618;28;8858;-65
2022/08/25 12:37:30;;;;;;;;;10.25;10.25;23.50;99.90;;;;;;5008101;28;8837;-66
2022/08/25 12:40:05;;;;;;;;;9.00;9.00;23.70;99.90;;;;;;5046202;28;8896;-66
2022/08/25 12:42:44;;;;;;;;;10.75;10.75;23.80;99.90;;;;;;5027540;28;8853;-65
2022/08/25 12:45:24;;;;;;;;;8.50;8.50;23.80;99.90;;;;;;5026169;28;8861;-69
2022/08/25 12:47:56;;;;;;;;;9.00;9.00;23.80;99.90;;;;;;5046964;28;8822;-65
2022/08/25 12:50:56;;;;;;;;;10.00;10.00;23.80;99.90;;;;;;5030587;28;9772;-65
2022/08/25 12:54:01;;;;;;;;;11.25;11.25;23.80;99.90;;;;;;5030463;28;8838;-64
2022/08/25 12:56:49;;;;;;;;;11.25;11.25;23.90;99.90;;;;;;5032761;28;8844;-64
2022/08/25 12:59:36;;;;;;;;;10.00;10.00;24.00;99.90;;;;;;5049685;28;8914;-69
2022/08/25 13:02:23;;;;;;;;;11.50;11.50;24.10;99.90;;;;;;5015740;28;8855;-69
2022/08/25 13:05:15;;;;;;;;;10.00;8.50;24.10;99.90;;;;;;5042236;28;8886;-67
2022/08/25 13:08:24;;;;;;;;;11.25;11.25;24.20;99.90;;;;;;5048689;28;8870;-67
2022/08/25 13:11:09;;;;;;;;;10.25;10.25;24.30;99.90;;;;;;4947398;28;8855;-66
2022/08/25 13:14:03;;;;;;;;;11.00;11.00;24.30;99.90;;;;;;5008732;28;8838;-66
2022/08/25 13:16:34;;;;;;;;;8.75;8.75;24.40;99.90;;;;;;5032294;28;8870;-65
2022/08/25 13:19:07;;;;;;;;;7.00;7.00;24.50;99.90;;;;;;5046010;28;8822;-66
2022/08/25 13:21:44;;;;;;;;;11.00;11.00;24.60;99.90;;;;;;5029315;28;8876;-68
2022/08/25 13:24:32;;;;;;;;;7.75;7.75;24.60;99.90;;;;;;5025474;28;8870;-68
2022/08/25 13:27:23;;;;;;;;;8.00;8.00;24.60;99.90;;;;;;5044935;28;8904;-66
2022/08/25 13:29:57;;;;;;;;;6.00;6.00;24.70;99.90;;;;;;5046085;28;8825;-66
2022/08/25 13:32:34;;;;;;;;;6.50;6.50;24.70;99.90;;;;;;5045774;28;8864;-67
2022/08/25 13:35:24;;;;;;;;;4.25;4.25;24.70;99.90;;;;;;5027837;28;8878;-66
2022/08/25 13:38:18;;;;;;;;;8.00;8.00;24.80;99.90;;;;;;5027352;28;8887;-66
2022/08/25 13:40:48;;;;;;;;;4.50;4.50;24.90;99.90;;;;;;5028400;28;8918;-68
2022/08/25 13:43:18;;;;;;;;;6.00;6.00;24.90;99.90;;;;;;5048030;28;8849;-69
2022/08/25 13:45:58;;;;;;;;;6.50;6.50;24.90;99.90;;;;;;5023893;28;8853;-66
2022/08/25 13:48:39;;;;;;;;;9.75;9.75;24.90;99.90;;;;;;5025901;28;8858;-66
2022/08/25 13:51:27;;;;;;;;;9.25;9.25;24.90;99.90;;;;;;5024838;28;8897;-68
2022/08/25 13:54:04;;;;;;;;;6.00;6.00;24.90;99.90;;;;;;5020614;28;8986;-67
2022/08/25 13:56:41;;;;;;;;;8.25;8.25;24.90;99.90;;;;;;5026531;28;8833;-65
2022/08/25 13:59:23;;;;;;;;;7.75;7.75;25.00;99.90;;;;;;5024440;28;8854;-63
2022/08/25 14:01:54;;;;;;;;;7.50;7.50;25.00;99.90;;;;;;5043285;28;9860;-65